sensor_id;sensor_type;location;lat;lon;timestamp;P1;durP1;ratioP1;P2;durP2;ratioP2
27003;SDS011;14546;47.590;19.022;2023-02-11T00:03:47;77.55;;;36.58;;
27003;SDS011;14546;47.590;19.022;2023-02-11T00:06:13;84.85;;;37.75;;
27003;SDS011;14546;47.590;19.022;2023-02-11T00:08:39;87.40;;;36.80;;
27003;SDS011;14546;47.590;19.022;2023-02-11T00:11:05;80.25;;;38.35;;
27003;SDS011;14546;47.590;19.022;2023-02-11T00:13:31;76.75;;;37.10;;
27003;SDS011;14546;47.590;19.022;2023-02-11T00:15:57;84.32;;;38.53;;
27003;SDS011;14546;47.590;19.022;2023-02-11T00:18:23;79.57;;;37.95;;
27003;SDS011;14546;47.590;19.022;2023-02-11T00:20:49;70.97;;;36.90;;
27003;SDS011;14546;47.590;19.022;2023-02-11T00:23:15;81.53;;;37.22;;
27003;SDS011;14546;47.590;19.022;2023-02-11T00:25:42;82.80;;;39.83;;
27003;SDS011;14546;47.590;19.022;2023-02-11T00:28:09;86.28;;;38.05;;
27003;SDS011;14546;47.590;19.022;2023-02-11T00:30:35;78.55;;;36.58;;
27003;SDS011;14546;47.590;19.022;2023-02-11T00:33:02;77.05;;;37.42;;
27003;SDS011;14546;47.590;19.022;2023-02-11T00:35:28;78.80;;;36.95;;
27003;SDS011;14546;47.590;19.022;2023-02-11T00:37:55;88.40;;;38.10;;
27003;SDS011;14546;47.590;19.022;2023-02-11T00:40:21;83.82;;;37.78;;
27003;SDS011;14546;47.590;19.022;2023-02-11T00:42:48;81.47;;;38.10;;
27003;SDS011;14546;47.590;19.022;2023-02-11T00:45:15;83.43;;;39.03;;
27003;SDS011;14546;47.590;19.022;2023-02-11T00:47:42;81.32;;;38.03;;
27003;SDS011;14546;47.590;19.022;2023-02-11T00:50:08;81.03;;;39.92;;
27003;SDS011;14546;47.590;19.022;2023-02-11T00:52:35;80.32;;;38.22;;
27003;SDS011;14546;47.590;19.022;2023-02-11T00:55:02;83.57;;;40.20;;
27003;SDS011;14546;47.590;19.022;2023-02-11T00:57:28;76.50;;;38.00;;
27003;SDS011;14546;47.590;19.022;2023-02-11T00:59:58;77.97;;;38.72;;
27003;SDS011;14546;47.590;19.022;2023-02-11T01:02:25;81.85;;;37.45;;
27003;SDS011;14546;47.590;19.022;2023-02-11T01:04:52;80.63;;;38.08;;
27003;SDS011;14546;47.590;19.022;2023-02-11T01:07:19;65.55;;;34.78;;
27003;SDS011;14546;47.590;19.022;2023-02-11T01:09:45;80.90;;;37.45;;
27003;SDS011;14546;47.590;19.022;2023-02-11T01:12:11;78.53;;;37.60;;
27003;SDS011;14546;47.590;19.022;2023-02-11T01:14:37;81.25;;;37.47;;
27003;SDS011;14546;47.590;19.022;2023-02-11T01:17:04;81.05;;;36.85;;
27003;SDS011;14546;47.590;19.022;2023-02-11T01:19:30;86.03;;;37.50;;
27003;SDS011;14546;47.590;19.022;2023-02-11T01:21:57;76.88;;;35.78;;
27003;SDS011;14546;47.590;19.022;2023-02-11T01:24:23;75.55;;;36.42;;
27003;SDS011;14546;47.590;19.022;2023-02-11T01:26:49;77.85;;;35.60;;
27003;SDS011;14546;47.590;19.022;2023-02-11T01:29:15;72.32;;;35.95;;
27003;SDS011;14546;47.590;19.022;2023-02-11T01:31:41;73.75;;;36.25;;
27003;SDS011;14546;47.590;19.022;2023-02-11T01:34:07;74.70;;;35.85;;
27003;SDS011;14546;47.590;19.022;2023-02-11T01:36:34;75.95;;;36.42;;
27003;SDS011;14546;47.590;19.022;2023-02-11T01:39:01;72.60;;;33.92;;
27003;SDS011;14546;47.590;19.022;2023-02-11T01:41:27;72.80;;;35.83;;
27003;SDS011;14546;47.590;19.022;2023-02-11T01:43:53;75.72;;;35.22;;
27003;SDS011;14546;47.590;19.022;2023-02-11T01:48:49;71.95;;;35.40;;
27003;SDS011;14546;47.590;19.022;2023-02-11T01:51:19;67.82;;;34.33;;
27003;SDS011;14546;47.590;19.022;2023-02-11T01:53:45;75.50;;;34.30;;
27003;SDS011;14546;47.590;19.022;2023-02-11T01:56:31;71.03;;;33.95;;
27003;SDS011;14546;47.590;19.022;2023-02-11T01:59:23;69.22;;;33.42;;
27003;SDS011;14546;47.590;19.022;2023-02-11T02:01:52;72.35;;;33.63;;
27003;SDS011;14546;47.590;19.022;2023-02-11T02:04:21;63.47;;;32.47;;
27003;SDS011;14546;47.590;19.022;2023-02-11T02:06:53;65.03;;;31.98;;
27003;SDS011;14546;47.590;19.022;2023-02-11T02:09:21;68.35;;;32.58;;
27003;SDS011;14546;47.590;19.022;2023-02-11T02:11:49;70.68;;;34.70;;
27003;SDS011;14546;47.590;19.022;2023-02-11T02:14:15;66.47;;;32.05;;
27003;SDS011;14546;47.590;19.022;2023-02-11T02:16:41;75.78;;;34.33;;
27003;SDS011;14546;47.590;19.022;2023-02-11T02:36:51;68.53;;;33.40;;
27003;SDS011;14546;47.590;19.022;2023-02-11T02:39:21;72.38;;;33.67;;
27003;SDS011;14546;47.590;19.022;2023-02-11T02:41:48;69.60;;;33.30;;
27003;SDS011;14546;47.590;19.022;2023-02-11T02:44:15;70.18;;;33.47;;
27003;SDS011;14546;47.590;19.022;2023-02-11T02:46:42;69.05;;;33.50;;
27003;SDS011;14546;47.590;19.022;2023-02-11T02:49:12;71.57;;;35.13;;
27003;SDS011;14546;47.590;19.022;2023-02-11T02:51:48;69.35;;;32.45;;
27003;SDS011;14546;47.590;19.022;2023-02-11T02:56:56;72.80;;;33.92;;
27003;SDS011;14546;47.590;19.022;2023-02-11T03:09:51;69.38;;;33.58;;
27003;SDS011;14546;47.590;19.022;2023-02-11T03:12:18;73.25;;;33.60;;
27003;SDS011;14546;47.590;19.022;2023-02-11T03:14:44;67.82;;;32.30;;
27003;SDS011;14546;47.590;19.022;2023-02-11T03:17:11;76.18;;;31.95;;
27003;SDS011;14546;47.590;19.022;2023-02-11T03:19:39;72.20;;;33.78;;
27003;SDS011;14546;47.590;19.022;2023-02-11T03:22:10;73.50;;;34.38;;
27003;SDS011;14546;47.590;19.022;2023-02-11T03:24:37;68.72;;;32.72;;
27003;SDS011;14546;47.590;19.022;2023-02-11T03:27:07;69.32;;;32.67;;
27003;SDS011;14546;47.590;19.022;2023-02-11T03:30:37;72.70;;;33.83;;
27003;SDS011;14546;47.590;19.022;2023-02-11T03:37:24;69.82;;;33.33;;
27003;SDS011;14546;47.590;19.022;2023-02-11T03:39:57;73.38;;;33.22;;
27003;SDS011;14546;47.590;19.022;2023-02-11T03:42:25;65.72;;;31.55;;
27003;SDS011;14546;47.590;19.022;2023-02-11T03:44:52;67.15;;;32.38;;
27003;SDS011;14546;47.590;19.022;2023-02-11T03:47:21;63.50;;;31.00;;
27003;SDS011;14546;47.590;19.022;2023-02-11T03:49:50;67.97;;;29.98;;
27003;SDS011;14546;47.590;19.022;2023-02-11T03:52:17;67.75;;;32.38;;
27003;SDS011;14546;47.590;19.022;2023-02-11T03:54:43;62.05;;;30.08;;
27003;SDS011;14546;47.590;19.022;2023-02-11T03:57:12;63.10;;;29.90;;
27003;SDS011;14546;47.590;19.022;2023-02-11T03:59:55;66.25;;;29.73;;
27003;SDS011;14546;47.590;19.022;2023-02-11T04:02:22;58.10;;;27.10;;
27003;SDS011;14546;47.590;19.022;2023-02-11T04:04:50;61.42;;;29.05;;
27003;SDS011;14546;47.590;19.022;2023-02-11T04:07:17;60.85;;;30.50;;
27003;SDS011;14546;47.590;19.022;2023-02-11T04:09:43;67.25;;;29.25;;
27003;SDS011;14546;47.590;19.022;2023-02-11T04:12:09;59.13;;;28.75;;
27003;SDS011;14546;47.590;19.022;2023-02-11T04:14:35;59.25;;;28.52;;
27003;SDS011;14546;47.590;19.022;2023-02-11T04:17:01;62.10;;;28.25;;
27003;SDS011;14546;47.590;19.022;2023-02-11T04:19:27;58.60;;;28.40;;
27003;SDS011;14546;47.590;19.022;2023-02-11T04:21:54;63.97;;;29.00;;
27003;SDS011;14546;47.590;19.022;2023-02-11T04:24:20;64.22;;;29.42;;
27003;SDS011;14546;47.590;19.022;2023-02-11T04:26:46;64.93;;;29.38;;
27003;SDS011;14546;47.590;19.022;2023-02-11T04:29:12;62.28;;;29.45;;
27003;SDS011;14546;47.590;19.022;2023-02-11T04:31:39;62.35;;;30.05;;
27003;SDS011;14546;47.590;19.022;2023-02-11T04:34:05;61.88;;;29.35;;
27003;SDS011;14546;47.590;19.022;2023-02-11T04:36:31;65.32;;;29.02;;
27003;SDS011;14546;47.590;19.022;2023-02-11T04:38:58;60.17;;;29.20;;
27003;SDS011;14546;47.590;19.022;2023-02-11T04:41:24;62.80;;;30.02;;
27003;SDS011;14546;47.590;19.022;2023-02-11T04:43:50;63.45;;;29.60;;
27003;SDS011;14546;47.590;19.022;2023-02-11T04:46:16;69.38;;;31.15;;
27003;SDS011;14546;47.590;19.022;2023-02-11T04:48:42;64.88;;;29.33;;
27003;SDS011;14546;47.590;19.022;2023-02-11T04:51:08;64.68;;;30.20;;
27003;SDS011;14546;47.590;19.022;2023-02-11T04:53:34;59.90;;;29.42;;
27003;SDS011;14546;47.590;19.022;2023-02-11T04:56:00;65.22;;;29.63;;
27003;SDS011;14546;47.590;19.022;2023-02-11T04:58:26;64.28;;;30.75;;
27003;SDS011;14546;47.590;19.022;2023-02-11T05:00:52;61.53;;;28.52;;
27003;SDS011;14546;47.590;19.022;2023-02-11T05:03:18;64.25;;;30.23;;
27003;SDS011;14546;47.590;19.022;2023-02-11T05:05:44;66.03;;;30.60;;
27003;SDS011;14546;47.590;19.022;2023-02-11T05:08:11;67.35;;;31.55;;
27003;SDS011;14546;47.590;19.022;2023-02-11T05:10:37;62.70;;;29.92;;
27003;SDS011;14546;47.590;19.022;2023-02-11T05:13:03;62.10;;;29.10;;
27003;SDS011;14546;47.590;19.022;2023-02-11T05:15:30;66.85;;;30.88;;
27003;SDS011;14546;47.590;19.022;2023-02-11T05:17:56;61.67;;;28.42;;
27003;SDS011;14546;47.590;19.022;2023-02-11T05:20:23;61.13;;;29.00;;
27003;SDS011;14546;47.590;19.022;2023-02-11T05:22:50;59.42;;;28.73;;
27003;SDS011;14546;47.590;19.022;2023-02-11T05:25:16;61.88;;;30.05;;
27003;SDS011;14546;47.590;19.022;2023-02-11T05:27:44;60.72;;;28.45;;
27003;SDS011;14546;47.590;19.022;2023-02-11T05:30:11;58.67;;;28.73;;
27003;SDS011;14546;47.590;19.022;2023-02-11T05:32:38;65.75;;;30.67;;
27003;SDS011;14546;47.590;19.022;2023-02-11T05:35:05;60.85;;;29.67;;
27003;SDS011;14546;47.590;19.022;2023-02-11T05:37:32;62.40;;;29.55;;
27003;SDS011;14546;47.590;19.022;2023-02-11T05:39:58;62.53;;;29.15;;
27003;SDS011;14546;47.590;19.022;2023-02-11T05:42:24;62.67;;;30.48;;
27003;SDS011;14546;47.590;19.022;2023-02-11T05:44:50;66.80;;;30.15;;
27003;SDS011;14546;47.590;19.022;2023-02-11T05:47:16;67.72;;;30.50;;
27003;SDS011;14546;47.590;19.022;2023-02-11T05:49:45;60.33;;;27.70;;
27003;SDS011;14546;47.590;19.022;2023-02-11T05:52:11;59.53;;;27.33;;
27003;SDS011;14546;47.590;19.022;2023-02-11T05:54:37;64.03;;;29.58;;
27003;SDS011;14546;47.590;19.022;2023-02-11T05:57:03;60.38;;;27.20;;
27003;SDS011;14546;47.590;19.022;2023-02-11T05:59:29;62.85;;;28.50;;
27003;SDS011;14546;47.590;19.022;2023-02-11T06:01:55;58.47;;;27.75;;
27003;SDS011;14546;47.590;19.022;2023-02-11T06:04:21;63.35;;;28.75;;
27003;SDS011;14546;47.590;19.022;2023-02-11T06:06:47;59.00;;;27.13;;
27003;SDS011;14546;47.590;19.022;2023-02-11T06:09:13;58.17;;;28.85;;
27003;SDS011;14546;47.590;19.022;2023-02-11T06:11:39;63.95;;;28.00;;
27003;SDS011;14546;47.590;19.022;2023-02-11T06:14:05;60.38;;;28.15;;
27003;SDS011;14546;47.590;19.022;2023-02-11T06:16:31;61.17;;;28.27;;
27003;SDS011;14546;47.590;19.022;2023-02-11T06:18:58;60.35;;;28.77;;
27003;SDS011;14546;47.590;19.022;2023-02-11T06:21:24;61.17;;;28.67;;
27003;SDS011;14546;47.590;19.022;2023-02-11T06:23:50;64.07;;;29.02;;
27003;SDS011;14546;47.590;19.022;2023-02-11T06:26:17;61.88;;;29.35;;
27003;SDS011;14546;47.590;19.022;2023-02-11T06:28:43;62.33;;;29.08;;
27003;SDS011;14546;47.590;19.022;2023-02-11T06:31:10;65.15;;;28.75;;
27003;SDS011;14546;47.590;19.022;2023-02-11T06:33:36;66.22;;;28.85;;
27003;SDS011;14546;47.590;19.022;2023-02-11T06:36:02;59.63;;;29.10;;
27003;SDS011;14546;47.590;19.022;2023-02-11T06:38:29;56.97;;;27.73;;
27003;SDS011;14546;47.590;19.022;2023-02-11T06:40:55;61.05;;;27.95;;
27003;SDS011;14546;47.590;19.022;2023-02-11T06:43:21;60.70;;;28.65;;
27003;SDS011;14546;47.590;19.022;2023-02-11T06:45:54;65.07;;;28.98;;
27003;SDS011;14546;47.590;19.022;2023-02-11T06:48:20;63.17;;;29.45;;
27003;SDS011;14546;47.590;19.022;2023-02-11T06:50:46;58.75;;;29.33;;
27003;SDS011;14546;47.590;19.022;2023-02-11T06:53:12;60.58;;;29.05;;
27003;SDS011;14546;47.590;19.022;2023-02-11T06:55:38;53.78;;;27.48;;
27003;SDS011;14546;47.590;19.022;2023-02-11T06:58:05;60.22;;;28.83;;
27003;SDS011;14546;47.590;19.022;2023-02-11T07:00:31;56.90;;;27.45;;
27003;SDS011;14546;47.590;19.022;2023-02-11T07:02:57;60.25;;;27.48;;
27003;SDS011;14546;47.590;19.022;2023-02-11T07:05:24;56.88;;;26.88;;
27003;SDS011;14546;47.590;19.022;2023-02-11T07:07:50;64.88;;;27.33;;
27003;SDS011;14546;47.590;19.022;2023-02-11T07:10:16;57.92;;;27.60;;
27003;SDS011;14546;47.590;19.022;2023-02-11T07:12:45;59.67;;;27.77;;
27003;SDS011;14546;47.590;19.022;2023-02-11T07:15:11;57.33;;;27.20;;
27003;SDS011;14546;47.590;19.022;2023-02-11T07:17:37;65.70;;;29.92;;
27003;SDS011;14546;47.590;19.022;2023-02-11T07:20:03;64.15;;;29.05;;
27003;SDS011;14546;47.590;19.022;2023-02-11T07:22:29;61.95;;;30.83;;
27003;SDS011;14546;47.590;19.022;2023-02-11T07:24:56;64.43;;;32.20;;
27003;SDS011;14546;47.590;19.022;2023-02-11T07:27:23;70.45;;;31.63;;
27003;SDS011;14546;47.590;19.022;2023-02-11T07:29:50;63.13;;;30.73;;
27003;SDS011;14546;47.590;19.022;2023-02-11T07:32:16;74.07;;;31.52;;
27003;SDS011;14546;47.590;19.022;2023-02-11T07:34:42;64.38;;;33.70;;
27003;SDS011;14546;47.590;19.022;2023-02-11T07:37:08;71.38;;;32.22;;
27003;SDS011;14546;47.590;19.022;2023-02-11T07:39:34;66.90;;;33.50;;
27003;SDS011;14546;47.590;19.022;2023-02-11T07:42:01;64.68;;;32.45;;
27003;SDS011;14546;47.590;19.022;2023-02-11T07:44:28;59.38;;;31.23;;
27003;SDS011;14546;47.590;19.022;2023-02-11T07:46:54;63.38;;;30.75;;
27003;SDS011;14546;47.590;19.022;2023-02-11T07:49:20;65.35;;;32.85;;
27003;SDS011;14546;47.590;19.022;2023-02-11T07:51:47;66.65;;;33.63;;
27003;SDS011;14546;47.590;19.022;2023-02-11T07:54:15;67.05;;;32.03;;
27003;SDS011;14546;47.590;19.022;2023-02-11T07:56:41;64.18;;;32.17;;
27003;SDS011;14546;47.590;19.022;2023-02-11T07:59:07;62.92;;;30.88;;
27003;SDS011;14546;47.590;19.022;2023-02-11T08:01:33;64.63;;;31.40;;
27003;SDS011;14546;47.590;19.022;2023-02-11T08:04:00;61.55;;;31.80;;
27003;SDS011;14546;47.590;19.022;2023-02-11T08:06:27;61.22;;;31.15;;
27003;SDS011;14546;47.590;19.022;2023-02-11T08:08:53;60.15;;;31.75;;
27003;SDS011;14546;47.590;19.022;2023-02-11T08:11:23;58.88;;;31.90;;
27003;SDS011;14546;47.590;19.022;2023-02-11T08:13:50;61.47;;;31.02;;
27003;SDS011;14546;47.590;19.022;2023-02-11T08:16:30;63.58;;;33.22;;
27003;SDS011;14546;47.590;19.022;2023-02-11T08:18:57;64.00;;;31.30;;
27003;SDS011;14546;47.590;19.022;2023-02-11T08:21:24;61.92;;;32.10;;
27003;SDS011;14546;47.590;19.022;2023-02-11T08:23:51;61.60;;;29.90;;
27003;SDS011;14546;47.590;19.022;2023-02-11T08:26:19;60.67;;;31.92;;
27003;SDS011;14546;47.590;19.022;2023-02-11T08:28:46;52.03;;;29.02;;
27003;SDS011;14546;47.590;19.022;2023-02-11T08:31:14;60.53;;;30.63;;
27003;SDS011;14546;47.590;19.022;2023-02-11T08:33:41;61.50;;;31.88;;
27003;SDS011;14546;47.590;19.022;2023-02-11T08:36:08;56.40;;;30.05;;
27003;SDS011;14546;47.590;19.022;2023-02-11T08:38:34;57.33;;;30.33;;
27003;SDS011;14546;47.590;19.022;2023-02-11T08:41:00;58.97;;;30.77;;
27003;SDS011;14546;47.590;19.022;2023-02-11T08:43:26;58.72;;;30.85;;
27003;SDS011;14546;47.590;19.022;2023-02-11T08:45:53;69.22;;;33.85;;
27003;SDS011;14546;47.590;19.022;2023-02-11T08:48:19;61.00;;;32.58;;
27003;SDS011;14546;47.590;19.022;2023-02-11T08:50:45;68.18;;;34.30;;
27003;SDS011;14546;47.590;19.022;2023-02-11T08:53:11;67.78;;;34.72;;
27003;SDS011;14546;47.590;19.022;2023-02-11T08:55:37;64.05;;;33.05;;
27003;SDS011;14546;47.590;19.022;2023-02-11T08:58:03;71.28;;;34.92;;
27003;SDS011;14546;47.590;19.022;2023-02-11T09:00:30;76.32;;;37.13;;
27003;SDS011;14546;47.590;19.022;2023-02-11T09:02:56;75.93;;;37.38;;
27003;SDS011;14546;47.590;19.022;2023-02-11T09:05:22;69.70;;;38.20;;
27003;SDS011;14546;47.590;19.022;2023-02-11T09:07:48;68.38;;;35.03;;
27003;SDS011;14546;47.590;19.022;2023-02-11T09:10:14;65.85;;;32.65;;
27003;SDS011;14546;47.590;19.022;2023-02-11T09:12:40;63.60;;;33.47;;
27003;SDS011;14546;47.590;19.022;2023-02-11T09:15:07;69.60;;;33.53;;
27003;SDS011;14546;47.590;19.022;2023-02-11T09:17:33;65.50;;;33.20;;
27003;SDS011;14546;47.590;19.022;2023-02-11T09:19:59;55.47;;;29.20;;
27003;SDS011;14546;47.590;19.022;2023-02-11T09:22:25;63.15;;;33.10;;
27003;SDS011;14546;47.590;19.022;2023-02-11T09:24:52;59.80;;;31.15;;
27003;SDS011;14546;47.590;19.022;2023-02-11T09:27:18;63.22;;;32.58;;
27003;SDS011;14546;47.590;19.022;2023-02-11T09:29:44;62.28;;;32.28;;
27003;SDS011;14546;47.590;19.022;2023-02-11T09:32:10;58.13;;;30.67;;
27003;SDS011;14546;47.590;19.022;2023-02-11T09:34:36;70.50;;;32.65;;
27003;SDS011;14546;47.590;19.022;2023-02-11T09:37:02;62.13;;;32.90;;
27003;SDS011;14546;47.590;19.022;2023-02-11T09:39:28;57.67;;;30.23;;
27003;SDS011;14546;47.590;19.022;2023-02-11T09:44:36;61.10;;;31.70;;
27003;SDS011;14546;47.590;19.022;2023-02-11T09:47:04;68.68;;;35.70;;
27003;SDS011;14546;47.590;19.022;2023-02-11T09:49:36;67.45;;;35.97;;
27003;SDS011;14546;47.590;19.022;2023-02-11T09:52:05;56.80;;;30.52;;
27003;SDS011;14546;47.590;19.022;2023-02-11T09:57:01;71.72;;;37.35;;
27003;SDS011;14546;47.590;19.022;2023-02-11T09:59:27;71.60;;;37.17;;
27003;SDS011;14546;47.590;19.022;2023-02-11T10:01:58;62.45;;;36.55;;
27003;SDS011;14546;47.590;19.022;2023-02-11T10:09:59;71.65;;;37.45;;
27003;SDS011;14546;47.590;19.022;2023-02-11T10:15:16;66.40;;;35.72;;
27003;SDS011;14546;47.590;19.022;2023-02-11T10:22:52;64.53;;;33.83;;
27003;SDS011;14546;47.590;19.022;2023-02-11T10:25:32;57.78;;;30.83;;
27003;SDS011;14546;47.590;19.022;2023-02-11T10:28:00;68.93;;;32.95;;
27003;SDS011;14546;47.590;19.022;2023-02-11T10:32:56;61.72;;;30.63;;
27003;SDS011;14546;47.590;19.022;2023-02-11T10:35:24;65.60;;;36.45;;
27003;SDS011;14546;47.590;19.022;2023-02-11T10:37:51;67.88;;;34.92;;
27003;SDS011;14546;47.590;19.022;2023-02-11T10:40:20;58.03;;;34.03;;
27003;SDS011;14546;47.590;19.022;2023-02-11T10:42:50;62.60;;;31.75;;
27003;SDS011;14546;47.590;19.022;2023-02-11T10:45:20;61.60;;;32.13;;
27003;SDS011;14546;47.590;19.022;2023-02-11T10:47:48;63.28;;;35.50;;
27003;SDS011;14546;47.590;19.022;2023-02-11T10:50:35;71.50;;;38.05;;
27003;SDS011;14546;47.590;19.022;2023-02-11T10:53:12;56.75;;;31.23;;
27003;SDS011;14546;47.590;19.022;2023-02-11T10:55:47;55.28;;;29.17;;
27003;SDS011;14546;47.590;19.022;2023-02-11T11:00:41;66.93;;;34.85;;
27003;SDS011;14546;47.590;19.022;2023-02-11T11:03:18;59.25;;;32.55;;
27003;SDS011;14546;47.590;19.022;2023-02-11T11:05:45;61.38;;;34.75;;
27003;SDS011;14546;47.590;19.022;2023-02-11T11:08:12;67.53;;;33.25;;
27003;SDS011;14546;47.590;19.022;2023-02-11T11:10:40;62.20;;;33.55;;
27003;SDS011;14546;47.590;19.022;2023-02-11T11:13:24;57.15;;;32.78;;
27003;SDS011;14546;47.590;19.022;2023-02-11T11:18:35;52.72;;;26.95;;
27003;SDS011;14546;47.590;19.022;2023-02-11T11:21:02;50.25;;;29.30;;
27003;SDS011;14546;47.590;19.022;2023-02-11T11:23:29;55.83;;;29.35;;
27003;SDS011;14546;47.590;19.022;2023-02-11T11:26:00;52.35;;;29.42;;
27003;SDS011;14546;47.590;19.022;2023-02-11T11:28:28;55.35;;;29.30;;
27003;SDS011;14546;47.590;19.022;2023-02-11T11:30:55;46.33;;;23.75;;
27003;SDS011;14546;47.590;19.022;2023-02-11T11:33:24;53.47;;;30.30;;
27003;SDS011;14546;47.590;19.022;2023-02-11T11:36:13;53.15;;;26.08;;
27003;SDS011;14546;47.590;19.022;2023-02-11T11:38:54;36.33;;;19.92;;
27003;SDS011;14546;47.590;19.022;2023-02-11T11:41:30;53.55;;;27.35;;
27003;SDS011;14546;47.590;19.022;2023-02-11T11:46:28;49.95;;;27.63;;
27003;SDS011;14546;47.590;19.022;2023-02-11T11:49:03;50.85;;;27.17;;
27003;SDS011;14546;47.590;19.022;2023-02-11T11:51:32;47.83;;;27.40;;
27003;SDS011;14546;47.590;19.022;2023-02-11T11:54:05;45.90;;;23.58;;
27003;SDS011;14546;47.590;19.022;2023-02-11T11:56:34;44.97;;;25.27;;
27003;SDS011;14546;47.590;19.022;2023-02-11T11:59:04;48.88;;;25.50;;
27003;SDS011;14546;47.590;19.022;2023-02-11T12:22:37;45.05;;;25.92;;
27003;SDS011;14546;47.590;19.022;2023-02-11T12:43:02;42.72;;;21.00;;
27003;SDS011;14546;47.590;19.022;2023-02-11T12:48:37;41.28;;;17.98;;
27003;SDS011;14546;47.590;19.022;2023-02-11T12:56:22;36.42;;;18.10;;
27003;SDS011;14546;47.590;19.022;2023-02-11T12:58:51;31.92;;;17.00;;
27003;SDS011;14546;47.590;19.022;2023-02-11T13:01:20;29.80;;;16.70;;
27003;SDS011;14546;47.590;19.022;2023-02-11T13:06:17;36.72;;;18.42;;
27003;SDS011;14546;47.590;19.022;2023-02-11T13:08:46;32.33;;;17.88;;
27003;SDS011;14546;47.590;19.022;2023-02-11T13:11:17;36.08;;;18.63;;
27003;SDS011;14546;47.590;19.022;2023-02-11T13:18:48;44.88;;;19.08;;
27003;SDS011;14546;47.590;19.022;2023-02-11T13:21:30;30.08;;;16.77;;
27003;SDS011;14546;47.590;19.022;2023-02-11T13:24:01;31.88;;;17.98;;
27003;SDS011;14546;47.590;19.022;2023-02-11T13:31:51;31.38;;;15.65;;
27003;SDS011;14546;47.590;19.022;2023-02-11T13:34:26;37.78;;;19.00;;
27003;SDS011;14546;47.590;19.022;2023-02-11T13:37:18;29.67;;;15.32;;
27003;SDS011;14546;47.590;19.022;2023-02-11T13:40:51;36.20;;;18.15;;
27003;SDS011;14546;47.590;19.022;2023-02-11T13:42:59;33.13;;;17.95;;
27003;SDS011;14546;47.590;19.022;2023-02-11T13:47:56;36.58;;;17.38;;
27003;SDS011;14546;47.590;19.022;2023-02-11T13:50:22;35.03;;;18.90;;
27003;SDS011;14546;47.590;19.022;2023-02-11T13:52:55;34.22;;;18.63;;
27003;SDS011;14546;47.590;19.022;2023-02-11T13:55:22;37.67;;;17.85;;
27003;SDS011;14546;47.590;19.022;2023-02-11T14:03:19;34.55;;;17.13;;
27003;SDS011;14546;47.590;19.022;2023-02-11T14:22:02;35.13;;;18.60;;
27003;SDS011;14546;47.590;19.022;2023-02-11T14:26:59;38.90;;;19.70;;
27003;SDS011;14546;47.590;19.022;2023-02-11T14:32:00;35.13;;;19.25;;
27003;SDS011;14546;47.590;19.022;2023-02-11T14:37:37;41.00;;;20.55;;
27003;SDS011;14546;47.590;19.022;2023-02-11T14:42:43;41.20;;;22.20;;
27003;SDS011;14546;47.590;19.022;2023-02-11T14:45:13;37.97;;;20.45;;
27003;SDS011;14546;47.590;19.022;2023-02-11T14:50:22;43.65;;;21.48;;
27003;SDS011;14546;47.590;19.022;2023-02-11T14:52:49;40.65;;;20.52;;
27003;SDS011;14546;47.590;19.022;2023-02-11T14:55:32;40.50;;;22.20;;
27003;SDS011;14546;47.590;19.022;2023-02-11T15:00:25;44.25;;;22.42;;
27003;SDS011;14546;47.590;19.022;2023-02-11T15:02:52;47.20;;;23.65;;
27003;SDS011;14546;47.590;19.022;2023-02-11T15:05:25;46.10;;;23.25;;
27003;SDS011;14546;47.590;19.022;2023-02-11T15:07:55;45.78;;;24.25;;
27003;SDS011;14546;47.590;19.022;2023-02-11T15:10:34;43.38;;;23.27;;
27003;SDS011;14546;47.590;19.022;2023-02-11T15:13:01;46.03;;;23.35;;
27003;SDS011;14546;47.590;19.022;2023-02-11T15:15:28;45.35;;;24.42;;
27003;SDS011;14546;47.590;19.022;2023-02-11T15:17:55;43.65;;;22.48;;
27003;SDS011;14546;47.590;19.022;2023-02-11T15:20:25;45.63;;;23.50;;
27003;SDS011;14546;47.590;19.022;2023-02-11T15:22:54;43.65;;;22.58;;
27003;SDS011;14546;47.590;19.022;2023-02-11T15:25:21;44.83;;;23.60;;
27003;SDS011;14546;47.590;19.022;2023-02-11T15:27:49;48.58;;;24.58;;
27003;SDS011;14546;47.590;19.022;2023-02-11T15:32:54;51.67;;;26.33;;
27003;SDS011;14546;47.590;19.022;2023-02-11T15:35:35;54.60;;;27.63;;
27003;SDS011;14546;47.590;19.022;2023-02-11T15:38:03;58.03;;;28.52;;
27003;SDS011;14546;47.590;19.022;2023-02-11T15:40:30;51.70;;;25.42;;
27003;SDS011;14546;47.590;19.022;2023-02-11T15:42:58;53.75;;;25.92;;
27003;SDS011;14546;47.590;19.022;2023-02-11T15:48:00;47.90;;;24.88;;
27003;SDS011;14546;47.590;19.022;2023-02-11T15:50:30;45.30;;;24.60;;
27003;SDS011;14546;47.590;19.022;2023-02-11T15:52:59;52.88;;;25.33;;
27003;SDS011;14546;47.590;19.022;2023-02-11T15:55:27;48.20;;;24.52;;
27003;SDS011;14546;47.590;19.022;2023-02-11T15:57:56;47.70;;;25.73;;
27003;SDS011;14546;47.590;19.022;2023-02-11T16:00:23;50.35;;;25.52;;
27003;SDS011;14546;47.590;19.022;2023-02-11T16:02:50;47.72;;;25.35;;
27003;SDS011;14546;47.590;19.022;2023-02-11T16:05:23;49.03;;;24.45;;
27003;SDS011;14546;47.590;19.022;2023-02-11T16:07:50;49.33;;;25.33;;
27003;SDS011;14546;47.590;19.022;2023-02-11T16:12:49;48.17;;;25.80;;
27003;SDS011;14546;47.590;19.022;2023-02-11T16:18:44;67.32;;;28.17;;
27003;SDS011;14546;47.590;19.022;2023-02-11T16:20:51;49.70;;;25.20;;
27003;SDS011;14546;47.590;19.022;2023-02-11T16:23:21;58.90;;;27.98;;
27003;SDS011;14546;47.590;19.022;2023-02-11T16:25:48;55.30;;;28.35;;
27003;SDS011;14546;47.590;19.022;2023-02-11T16:28:15;51.63;;;27.33;;
27003;SDS011;14546;47.590;19.022;2023-02-11T16:30:41;55.80;;;27.10;;
27003;SDS011;14546;47.590;19.022;2023-02-11T16:33:08;51.63;;;25.70;;
27003;SDS011;14546;47.590;19.022;2023-02-11T16:35:36;50.88;;;24.50;;
27003;SDS011;14546;47.590;19.022;2023-02-11T16:38:02;45.03;;;24.42;;
27003;SDS011;14546;47.590;19.022;2023-02-11T16:40:29;61.60;;;26.55;;
27003;SDS011;14546;47.590;19.022;2023-02-11T16:42:55;55.70;;;27.13;;
27003;SDS011;14546;47.590;19.022;2023-02-11T16:45:21;60.78;;;29.33;;
27003;SDS011;14546;47.590;19.022;2023-02-11T16:47:48;67.70;;;27.80;;
27003;SDS011;14546;47.590;19.022;2023-02-11T16:50:22;57.53;;;27.23;;
27003;SDS011;14546;47.590;19.022;2023-02-11T16:52:49;56.33;;;28.40;;
27003;SDS011;14546;47.590;19.022;2023-02-11T16:55:16;56.55;;;27.58;;
27003;SDS011;14546;47.590;19.022;2023-02-11T16:57:43;59.55;;;28.85;;
27003;SDS011;14546;47.590;19.022;2023-02-11T17:00:09;56.33;;;27.60;;
27003;SDS011;14546;47.590;19.022;2023-02-11T17:02:36;55.20;;;27.83;;
27003;SDS011;14546;47.590;19.022;2023-02-11T17:05:04;53.90;;;27.33;;
27003;SDS011;14546;47.590;19.022;2023-02-11T17:07:32;53.55;;;26.88;;
27003;SDS011;14546;47.590;19.022;2023-02-11T17:09:58;53.30;;;28.10;;
27003;SDS011;14546;47.590;19.022;2023-02-11T17:12:24;56.85;;;28.55;;
27003;SDS011;14546;47.590;19.022;2023-02-11T17:14:52;54.58;;;28.17;;